sensor_id;sensor_type;location;lat;lon;timestamp;P1;durP1;ratioP1;P2;durP2;ratioP2
2021;SDS011;1015;49.756;6.994;2023-04-03T00:00:51;4.93;;;4.17;;
2021;SDS011;1015;49.756;6.994;2023-04-03T00:03:18;5.70;;;4.43;;
2021;SDS011;1015;49.756;6.994;2023-04-03T00:05:46;4.87;;;4.37;;
2021;SDS011;1015;49.756;6.994;2023-04-03T00:08:13;9.20;;;4.90;;
2021;SDS011;1015;49.756;6.994;2023-04-03T00:10:40;5.17;;;3.90;;
2021;SDS011;1015;49.756;6.994;2023-04-03T00:13:07;4.57;;;3.77;;
2021;SDS011;1015;49.756;6.994;2023-04-03T00:15:35;7.27;;;3.77;;
2021;SDS011;1015;49.756;6.994;2023-04-03T00:18:04;6.17;;;4.70;;
2021;SDS011;1015;49.756;6.994;2023-04-03T00:20:31;7.03;;;4.57;;
2021;SDS011;1015;49.756;6.994;2023-04-03T00:22:58;6.90;;;4.43;;
2021;SDS011;1015;49.756;6.994;2023-04-03T00:25:26;5.33;;;4.10;;
2021;SDS011;1015;49.756;6.994;2023-04-03T00:27:53;6.30;;;4.07;;
2021;SDS011;1015;49.756;6.994;2023-04-03T00:30:20;5.50;;;4.20;;
2021;SDS011;1015;49.756;6.994;2023-04-03T00:32:48;4.83;;;4.23;;
2021;SDS011;1015;49.756;6.994;2023-04-03T00:35:17;4.33;;;3.70;;
2021;SDS011;1015;49.756;6.994;2023-04-03T00:37:45;5.70;;;4.37;;
2021;SDS011;1015;49.756;6.994;2023-04-03T00:40:13;3.90;;;3.60;;
2021;SDS011;1015;49.756;6.994;2023-04-03T00:42:41;3.57;;;2.90;;
2021;SDS011;1015;49.756;6.994;2023-04-03T00:48:07;6.40;;;3.80;;
2021;SDS011;1015;49.756;6.994;2023-04-03T00:50:37;6.50;;;4.20;;
2021;SDS011;1015;49.756;6.994;2023-04-03T00:53:06;5.03;;;4.10;;
2021;SDS011;1015;49.756;6.994;2023-04-03T00:55:34;4.83;;;3.70;;
2021;SDS011;1015;49.756;6.994;2023-04-03T00:58:02;4.93;;;4.30;;
2021;SDS011;1015;49.756;6.994;2023-04-03T01:00:30;5.20;;;4.13;;
2021;SDS011;1015;49.756;6.994;2023-04-03T01:02:57;6.30;;;4.50;;
2021;SDS011;1015;49.756;6.994;2023-04-03T01:05:24;5.23;;;4.43;;
2021;SDS011;1015;49.756;6.994;2023-04-03T01:07:53;6.77;;;4.07;;
2021;SDS011;1015;49.756;6.994;2023-04-03T01:10:20;6.60;;;4.70;;
2021;SDS011;1015;49.756;6.994;2023-04-03T01:12:48;2.60;;;2.40;;
2021;SDS011;1015;49.756;6.994;2023-04-03T01:15:17;6.43;;;4.47;;
2021;SDS011;1015;49.756;6.994;2023-04-03T01:17:45;6.40;;;4.10;;
2021;SDS011;1015;49.756;6.994;2023-04-03T01:23:02;7.10;;;4.10;;
2021;SDS011;1015;49.756;6.994;2023-04-03T01:25:31;6.20;;;4.20;;
2021;SDS011;1015;49.756;6.994;2023-04-03T01:27:58;5.30;;;4.30;;
2021;SDS011;1015;49.756;6.994;2023-04-03T01:30:26;4.70;;;3.60;;
2021;SDS011;1015;49.756;6.994;2023-04-03T01:32:56;4.90;;;4.27;;
2021;SDS011;1015;49.756;6.994;2023-04-03T01:35:23;6.20;;;4.23;;
2021;SDS011;1015;49.756;6.994;2023-04-03T01:37:50;3.63;;;3.13;;
2021;SDS011;1015;49.756;6.994;2023-04-03T01:40:18;6.50;;;3.90;;
2021;SDS011;1015;49.756;6.994;2023-04-03T01:42:45;4.70;;;4.10;;
2021;SDS011;1015;49.756;6.994;2023-04-03T01:45:12;5.37;;;4.13;;
2021;SDS011;1015;49.756;6.994;2023-04-03T01:47:39;4.90;;;3.73;;
2021;SDS011;1015;49.756;6.994;2023-04-03T01:50:08;5.17;;;4.50;;
2021;SDS011;1015;49.756;6.994;2023-04-03T01:52:35;5.67;;;4.53;;
2021;SDS011;1015;49.756;6.994;2023-04-03T01:55:03;4.57;;;4.13;;
2021;SDS011;1015;49.756;6.994;2023-04-03T01:57:30;5.70;;;3.90;;
2021;SDS011;1015;49.756;6.994;2023-04-03T01:59:57;5.97;;;3.87;;
2021;SDS011;1015;49.756;6.994;2023-04-03T02:02:25;5.10;;;3.70;;
2021;SDS011;1015;49.756;6.994;2023-04-03T02:04:52;3.50;;;3.13;;
2021;SDS011;1015;49.756;6.994;2023-04-03T02:07:21;4.73;;;3.97;;
2021;SDS011;1015;49.756;6.994;2023-04-03T02:09:48;4.60;;;4.20;;
2021;SDS011;1015;49.756;6.994;2023-04-03T02:12:15;4.13;;;3.23;;
2021;SDS011;1015;49.756;6.994;2023-04-03T02:14:42;6.93;;;3.40;;
2021;SDS011;1015;49.756;6.994;2023-04-03T02:17:10;2.80;;;2.60;;
2021;SDS011;1015;49.756;6.994;2023-04-03T02:19:37;5.13;;;4.20;;
2021;SDS011;1015;49.756;6.994;2023-04-03T02:22:05;5.80;;;3.50;;
2021;SDS011;1015;49.756;6.994;2023-04-03T02:24:33;4.67;;;3.60;;
2021;SDS011;1015;49.756;6.994;2023-04-03T02:27:01;4.30;;;3.50;;
2021;SDS011;1015;49.756;6.994;2023-04-03T02:29:28;3.90;;;2.70;;
2021;SDS011;1015;49.756;6.994;2023-04-03T02:31:55;3.43;;;3.00;;
2021;SDS011;1015;49.756;6.994;2023-04-03T02:34:22;5.43;;;3.47;;
2021;SDS011;1015;49.756;6.994;2023-04-03T02:36:50;5.73;;;3.00;;
2021;SDS011;1015;49.756;6.994;2023-04-03T02:39:17;8.40;;;3.70;;
2021;SDS011;1015;49.756;6.994;2023-04-03T02:41:46;3.57;;;3.27;;
2021;SDS011;1015;49.756;6.994;2023-04-03T02:44:13;4.00;;;3.07;;
2021;SDS011;1015;49.756;6.994;2023-04-03T02:46:40;3.77;;;3.37;;
2021;SDS011;1015;49.756;6.994;2023-04-03T02:49:08;3.30;;;3.00;;
2021;SDS011;1015;49.756;6.994;2023-04-03T02:51:35;4.63;;;3.30;;
2021;SDS011;1015;49.756;6.994;2023-04-03T02:54:02;4.20;;;3.47;;
2021;SDS011;1015;49.756;6.994;2023-04-03T02:56:29;5.47;;;2.80;;
2021;SDS011;1015;49.756;6.994;2023-04-03T02:58:58;3.20;;;2.90;;
2021;SDS011;1015;49.756;6.994;2023-04-03T03:01:25;4.30;;;3.20;;
2021;SDS011;1015;49.756;6.994;2023-04-03T03:03:56;4.43;;;3.20;;
2021;SDS011;1015;49.756;6.994;2023-04-03T03:06:23;4.53;;;3.23;;
2021;SDS011;1015;49.756;6.994;2023-04-03T03:08:50;4.73;;;2.83;;
2021;SDS011;1015;49.756;6.994;2023-04-03T03:11:17;4.50;;;3.43;;
2021;SDS011;1015;49.756;6.994;2023-04-03T03:13:47;4.30;;;3.10;;
2021;SDS011;1015;49.756;6.994;2023-04-03T03:16:16;5.30;;;3.20;;
2021;SDS011;1015;49.756;6.994;2023-04-03T03:18:43;4.53;;;3.10;;
2021;SDS011;1015;49.756;6.994;2023-04-03T03:21:10;3.87;;;2.97;;
2021;SDS011;1015;49.756;6.994;2023-04-03T03:23:37;3.90;;;2.80;;
2021;SDS011;1015;49.756;6.994;2023-04-03T03:26:05;3.70;;;2.80;;
2021;SDS011;1015;49.756;6.994;2023-04-03T03:28:33;3.37;;;2.60;;
2021;SDS011;1015;49.756;6.994;2023-04-03T03:31:01;3.33;;;2.97;;
2021;SDS011;1015;49.756;6.994;2023-04-03T03:33:30;4.03;;;3.63;;
2021;SDS011;1015;49.756;6.994;2023-04-03T03:35:57;4.23;;;2.97;;
2021;SDS011;1015;49.756;6.994;2023-04-03T03:38:24;3.97;;;3.23;;
2021;SDS011;1015;49.756;6.994;2023-04-03T03:40:51;2.73;;;2.53;;
2021;SDS011;1015;49.756;6.994;2023-04-03T03:43:19;3.60;;;3.00;;
2021;SDS011;1015;49.756;6.994;2023-04-03T03:45:49;4.60;;;2.73;;
2021;SDS011;1015;49.756;6.994;2023-04-03T03:48:17;4.00;;;3.00;;
2021;SDS011;1015;49.756;6.994;2023-04-03T03:50:46;3.90;;;3.20;;
2021;SDS011;1015;49.756;6.994;2023-04-03T03:53:13;3.20;;;2.90;;
2021;SDS011;1015;49.756;6.994;2023-04-03T03:55:41;2.83;;;2.50;;
2021;SDS011;1015;49.756;6.994;2023-04-03T03:58:08;2.80;;;2.60;;
2021;SDS011;1015;49.756;6.994;2023-04-03T04:00:35;2.77;;;2.57;;
2021;SDS011;1015;49.756;6.994;2023-04-03T04:03:02;4.03;;;2.47;;
2021;SDS011;1015;49.756;6.994;2023-04-03T04:05:30;2.57;;;2.37;;
2021;SDS011;1015;49.756;6.994;2023-04-03T04:07:58;3.33;;;2.50;;
2021;SDS011;1015;49.756;6.994;2023-04-03T04:10:25;4.03;;;2.40;;
2021;SDS011;1015;49.756;6.994;2023-04-03T04:12:52;2.93;;;2.60;;
2021;SDS011;1015;49.756;6.994;2023-04-03T04:15:20;4.27;;;2.67;;
2021;SDS011;1015;49.756;6.994;2023-04-03T04:17:48;3.90;;;2.70;;
2021;SDS011;1015;49.756;6.994;2023-04-03T04:20:15;2.63;;;2.43;;
2021;SDS011;1015;49.756;6.994;2023-04-03T04:22:42;3.93;;;2.67;;
2021;SDS011;1015;49.756;6.994;2023-04-03T04:25:11;4.97;;;2.23;;
2021;SDS011;1015;49.756;6.994;2023-04-03T04:27:38;5.30;;;2.97;;
2021;SDS011;1015;49.756;6.994;2023-04-03T04:30:06;3.10;;;2.43;;
2021;SDS011;1015;49.756;6.994;2023-04-03T04:32:33;5.20;;;2.77;;
2021;SDS011;1015;49.756;6.994;2023-04-03T04:35:00;4.17;;;2.70;;
2021;SDS011;1015;49.756;6.994;2023-04-03T04:37:28;5.23;;;2.70;;
2021;SDS011;1015;49.756;6.994;2023-04-03T04:39:56;4.60;;;2.90;;
2021;SDS011;1015;49.756;6.994;2023-04-03T04:42:24;3.80;;;2.97;;
2021;SDS011;1015;49.756;6.994;2023-04-03T04:44:51;3.77;;;2.40;;
2021;SDS011;1015;49.756;6.994;2023-04-03T04:47:19;2.90;;;2.60;;
2021;SDS011;1015;49.756;6.994;2023-04-03T04:49:46;3.60;;;2.40;;
2021;SDS011;1015;49.756;6.994;2023-04-03T04:52:13;4.30;;;2.53;;
2021;SDS011;1015;49.756;6.994;2023-04-03T04:54:40;3.87;;;2.90;;
2021;SDS011;1015;49.756;6.994;2023-04-03T04:57:08;4.73;;;2.90;;
2021;SDS011;1015;49.756;6.994;2023-04-03T04:59:37;4.50;;;2.70;;
2021;SDS011;1015;49.756;6.994;2023-04-03T05:02:04;2.80;;;2.40;;
2021;SDS011;1015;49.756;6.994;2023-04-03T05:04:31;4.60;;;2.80;;
2021;SDS011;1015;49.756;6.994;2023-04-03T05:06:59;3.90;;;2.60;;
2021;SDS011;1015;49.756;6.994;2023-04-03T05:09:26;3.43;;;2.70;;
2021;SDS011;1015;49.756;6.994;2023-04-03T05:11:53;3.77;;;2.60;;
2021;SDS011;1015;49.756;6.994;2023-04-03T05:14:21;2.53;;;2.33;;
2021;SDS011;1015;49.756;6.994;2023-04-03T05:16:49;2.60;;;2.40;;
2021;SDS011;1015;49.756;6.994;2023-04-03T05:19:18;3.47;;;2.67;;
2021;SDS011;1015;49.756;6.994;2023-04-03T05:21:46;3.30;;;2.43;;
2021;SDS011;1015;49.756;6.994;2023-04-03T05:24:13;3.67;;;2.80;;
2021;SDS011;1015;49.756;6.994;2023-04-03T05:26:41;3.10;;;2.90;;
2021;SDS011;1015;49.756;6.994;2023-04-03T05:29:08;3.30;;;2.80;;
2021;SDS011;1015;49.756;6.994;2023-04-03T05:31:35;2.53;;;2.30;;
2021;SDS011;1015;49.756;6.994;2023-04-03T05:34:04;4.40;;;2.50;;
2021;SDS011;1015;49.756;6.994;2023-04-03T05:36:31;3.37;;;2.40;;
2021;SDS011;1015;49.756;6.994;2023-04-03T05:38:58;3.70;;;2.70;;
2021;SDS011;1015;49.756;6.994;2023-04-03T05:41:26;4.40;;;2.67;;
2021;SDS011;1015;49.756;6.994;2023-04-03T05:43:53;3.40;;;2.33;;
2021;SDS011;1015;49.756;6.994;2023-04-03T05:46:20;3.93;;;2.73;;
2021;SDS011;1015;49.756;6.994;2023-04-03T05:48:47;2.80;;;2.10;;
2021;SDS011;1015;49.756;6.994;2023-04-03T05:51:17;4.50;;;2.40;;
2021;SDS011;1015;49.756;6.994;2023-04-03T05:53:45;3.90;;;2.00;;
2021;SDS011;1015;49.756;6.994;2023-04-03T05:56:14;3.33;;;2.63;;
2021;SDS011;1015;49.756;6.994;2023-04-03T05:58:41;4.13;;;2.50;;
2021;SDS011;1015;49.756;6.994;2023-04-03T06:01:08;2.70;;;2.10;;
2021;SDS011;1015;49.756;6.994;2023-04-03T06:03:36;2.93;;;2.20;;
2021;SDS011;1015;49.756;6.994;2023-04-03T06:06:05;2.70;;;2.50;;
2021;SDS011;1015;49.756;6.994;2023-04-03T06:08:34;4.50;;;3.20;;
2021;SDS011;1015;49.756;6.994;2023-04-03T06:11:01;3.30;;;2.50;;
2021;SDS011;1015;49.756;6.994;2023-04-03T06:13:28;3.33;;;2.50;;
2021;SDS011;1015;49.756;6.994;2023-04-03T06:15:56;3.07;;;2.77;;
2021;SDS011;1015;49.756;6.994;2023-04-03T06:18:23;5.40;;;2.47;;
2021;SDS011;1015;49.756;6.994;2023-04-03T06:20:51;2.03;;;1.50;;
2021;SDS011;1015;49.756;6.994;2023-04-03T06:23:18;4.00;;;2.50;;
2021;SDS011;1015;49.756;6.994;2023-04-03T06:25:46;2.90;;;2.57;;
2021;SDS011;1015;49.756;6.994;2023-04-03T06:28:14;3.03;;;2.50;;
2021;SDS011;1015;49.756;6.994;2023-04-03T06:30:41;3.70;;;2.50;;
2021;SDS011;1015;49.756;6.994;2023-04-03T06:33:08;2.40;;;2.10;;
2021;SDS011;1015;49.756;6.994;2023-04-03T06:35:35;2.77;;;2.40;;
2021;SDS011;1015;49.756;6.994;2023-04-03T06:38:03;3.70;;;2.40;;
2021;SDS011;1015;49.756;6.994;2023-04-03T06:40:34;5.00;;;2.93;;
2021;SDS011;1015;49.756;6.994;2023-04-03T06:43:03;3.60;;;2.20;;
2021;SDS011;1015;49.756;6.994;2023-04-03T06:45:31;2.80;;;2.17;;
2021;SDS011;1015;49.756;6.994;2023-04-03T06:47:58;4.57;;;3.30;;
2021;SDS011;1015;49.756;6.994;2023-04-03T06:50:25;4.50;;;2.37;;
2021;SDS011;1015;49.756;6.994;2023-04-03T06:52:52;7.10;;;2.93;;
2021;SDS011;1015;49.756;6.994;2023-04-03T06:55:19;3.63;;;2.93;;
2021;SDS011;1015;49.756;6.994;2023-04-03T06:57:47;4.33;;;2.70;;
2021;SDS011;1015;49.756;6.994;2023-04-03T07:00:16;5.63;;;3.30;;
2021;SDS011;1015;49.756;6.994;2023-04-03T07:02:43;3.70;;;2.60;;
2021;SDS011;1015;49.756;6.994;2023-04-03T07:05:11;4.87;;;3.17;;
2021;SDS011;1015;49.756;6.994;2023-04-03T07:07:39;4.77;;;2.70;;
2021;SDS011;1015;49.756;6.994;2023-04-03T07:10:06;2.70;;;1.90;;
2021;SDS011;1015;49.756;6.994;2023-04-03T07:12:35;5.30;;;1.80;;
2021;SDS011;1015;49.756;6.994;2023-04-03T07:15:03;2.63;;;2.40;;
2021;SDS011;1015;49.756;6.994;2023-04-03T07:17:31;2.80;;;2.40;;
2021;SDS011;1015;49.756;6.994;2023-04-03T07:19:58;5.50;;;2.60;;
2021;SDS011;1015;49.756;6.994;2023-04-03T07:22:26;3.60;;;2.50;;
2021;SDS011;1015;49.756;6.994;2023-04-03T07:24:53;4.67;;;2.63;;
2021;SDS011;1015;49.756;6.994;2023-04-03T07:27:20;3.60;;;2.73;;
2021;SDS011;1015;49.756;6.994;2023-04-03T07:29:47;5.10;;;2.30;;
2021;SDS011;1015;49.756;6.994;2023-04-03T07:32:15;4.47;;;2.40;;
2021;SDS011;1015;49.756;6.994;2023-04-03T07:34:43;4.23;;;2.40;;
2021;SDS011;1015;49.756;6.994;2023-04-03T07:37:11;3.83;;;2.57;;
2021;SDS011;1015;49.756;6.994;2023-04-03T07:39:38;2.10;;;1.87;;
2021;SDS011;1015;49.756;6.994;2023-04-03T07:42:06;4.00;;;1.97;;
2021;SDS011;1015;49.756;6.994;2023-04-03T07:44:34;2.87;;;1.77;;
2021;SDS011;1015;49.756;6.994;2023-04-03T07:47:01;3.83;;;2.67;;
2021;SDS011;1015;49.756;6.994;2023-04-03T07:49:28;3.20;;;2.43;;
2021;SDS011;1015;49.756;6.994;2023-04-03T07:51:59;4.07;;;2.67;;
2021;SDS011;1015;49.756;6.994;2023-04-03T07:54:26;5.53;;;2.60;;
2021;SDS011;1015;49.756;6.994;2023-04-03T07:56:53;3.83;;;2.77;;
2021;SDS011;1015;49.756;6.994;2023-04-03T07:59:21;4.20;;;3.80;;
2021;SDS011;1015;49.756;6.994;2023-04-03T08:01:49;3.63;;;2.80;;
2021;SDS011;1015;49.756;6.994;2023-04-03T08:04:16;5.40;;;4.20;;
2021;SDS011;1015;49.756;6.994;2023-04-03T08:06:43;4.37;;;3.33;;
2021;SDS011;1015;49.756;6.994;2023-04-03T08:09:12;5.80;;;2.87;;
2021;SDS011;1015;49.756;6.994;2023-04-03T08:11:40;5.00;;;3.53;;
2021;SDS011;1015;49.756;6.994;2023-04-03T08:14:07;4.63;;;3.30;;
2021;SDS011;1015;49.756;6.994;2023-04-03T08:16:40;4.73;;;3.10;;
2021;SDS011;1015;49.756;6.994;2023-04-03T08:19:08;2.67;;;2.43;;
2021;SDS011;1015;49.756;6.994;2023-04-03T08:21:35;4.30;;;2.97;;
2021;SDS011;1015;49.756;6.994;2023-04-03T08:24:03;3.63;;;2.90;;
2021;SDS011;1015;49.756;6.994;2023-04-03T08:26:32;4.77;;;4.10;;
2021;SDS011;1015;49.756;6.994;2023-04-03T08:28:59;3.30;;;2.87;;
2021;SDS011;1015;49.756;6.994;2023-04-03T08:31:26;6.83;;;4.00;;
2021;SDS011;1015;49.756;6.994;2023-04-03T08:33:54;6.37;;;4.67;;
2021;SDS011;1015;49.756;6.994;2023-04-03T08:36:21;9.40;;;5.73;;
2021;SDS011;1015;49.756;6.994;2023-04-03T08:38:49;7.80;;;4.63;;
2021;SDS011;1015;49.756;6.994;2023-04-03T08:41:20;7.03;;;3.53;;
2021;SDS011;1015;49.756;6.994;2023-04-03T08:44:02;5.10;;;3.57;;
2021;SDS011;1015;49.756;6.994;2023-04-03T08:46:35;3.47;;;3.17;;
2021;SDS011;1015;49.756;6.994;2023-04-03T08:49:04;4.90;;;3.80;;
2021;SDS011;1015;49.756;6.994;2023-04-03T08:51:36;6.17;;;3.60;;
2021;SDS011;1015;49.756;6.994;2023-04-03T08:54:06;3.27;;;2.87;;
2021;SDS011;1015;49.756;6.994;2023-04-03T08:56:34;4.80;;;3.70;;
2021;SDS011;1015;49.756;6.994;2023-04-03T08:59:05;4.67;;;3.80;;
2021;SDS011;1015;49.756;6.994;2023-04-03T09:01:35;5.63;;;4.40;;
2021;SDS011;1015;49.756;6.994;2023-04-03T09:04:09;4.83;;;4.10;;
2021;SDS011;1015;49.756;6.994;2023-04-03T09:06:37;4.30;;;3.80;;
2021;SDS011;1015;49.756;6.994;2023-04-03T09:09:09;4.30;;;3.50;;
2021;SDS011;1015;49.756;6.994;2023-04-03T09:11:42;6.90;;;4.97;;
2021;SDS011;1015;49.756;6.994;2023-04-03T09:14:14;4.13;;;3.73;;
2021;SDS011;1015;49.756;6.994;2023-04-03T09:16:46;4.30;;;3.57;;
2021;SDS011;1015;49.756;6.994;2023-04-03T09:19:15;4.60;;;4.00;;
2021;SDS011;1015;49.756;6.994;2023-04-03T09:21:45;5.10;;;3.00;;
2021;SDS011;1015;49.756;6.994;2023-04-03T09:24:13;3.17;;;2.83;;
2021;SDS011;1015;49.756;6.994;2023-04-03T09:26:42;4.80;;;2.90;;
2021;SDS011;1015;49.756;6.994;2023-04-03T09:29:12;2.97;;;2.30;;
2021;SDS011;1015;49.756;6.994;2023-04-03T09:31:43;3.63;;;2.20;;
2021;SDS011;1015;49.756;6.994;2023-04-03T09:34:14;6.77;;;3.10;;
2021;SDS011;1015;49.756;6.994;2023-04-03T09:36:44;6.47;;;3.10;;
2021;SDS011;1015;49.756;6.994;2023-04-03T09:39:13;2.80;;;2.20;;
2021;SDS011;1015;49.756;6.994;2023-04-03T09:41:41;3.53;;;2.40;;
2021;SDS011;1015;49.756;6.994;2023-04-03T09:44:19;4.70;;;3.10;;
2021;SDS011;1015;49.756;6.994;2023-04-03T09:46:48;3.23;;;2.80;;
2021;SDS011;1015;49.756;6.994;2023-04-03T09:49:16;2.87;;;2.40;;
2021;SDS011;1015;49.756;6.994;2023-04-03T09:51:44;4.50;;;2.70;;
2021;SDS011;1015;49.756;6.994;2023-04-03T09:54:31;4.70;;;3.00;;
2021;SDS011;1015;49.756;6.994;2023-04-03T09:57:01;3.03;;;2.70;;
2021;SDS011;1015;49.756;6.994;2023-04-03T09:59:31;3.60;;;2.23;;
2021;SDS011;1015;49.756;6.994;2023-04-03T10:02:00;2.67;;;2.17;;
2021;SDS011;1015;49.756;6.994;2023-04-03T10:04:36;3.53;;;2.80;;
2021;SDS011;1015;49.756;6.994;2023-04-03T10:07:04;2.97;;;2.77;;
2021;SDS011;1015;49.756;6.994;2023-04-03T10:09:54;5.30;;;2.57;;
2021;SDS011;1015;49.756;6.994;2023-04-03T10:12:21;2.63;;;1.97;;
2021;SDS011;1015;49.756;6.994;2023-04-03T10:14:53;2.93;;;2.20;;
2021;SDS011;1015;49.756;6.994;2023-04-03T10:17:24;2.37;;;1.97;;
2021;SDS011;1015;49.756;6.994;2023-04-03T10:19:57;4.20;;;3.13;;
2021;SDS011;1015;49.756;6.994;2023-04-03T10:22:28;4.70;;;2.23;;
2021;SDS011;1015;49.756;6.994;2023-04-03T10:25:01;2.00;;;1.90;;
2021;SDS011;1015;49.756;6.994;2023-04-03T10:27:32;3.40;;;2.50;;
2021;SDS011;1015;49.756;6.994;2023-04-03T10:30:04;6.60;;;3.87;;
2021;SDS011;1015;49.756;6.994;2023-04-03T10:32:40;4.13;;;2.80;;
2021;SDS011;1015;49.756;6.994;2023-04-03T10:35:11;3.40;;;2.27;;
2021;SDS011;1015;49.756;6.994;2023-04-03T10:37:46;2.67;;;2.30;;
2021;SDS011;1015;49.756;6.994;2023-04-03T10:40:22;2.47;;;1.90;;
2021;SDS011;1015;49.756;6.994;2023-04-03T10:42:52;2.50;;;2.13;;
2021;SDS011;1015;49.756;6.994;2023-04-03T10:45:24;2.73;;;2.10;;
2021;SDS011;1015;49.756;6.994;2023-04-03T10:47:57;2.67;;;2.47;;
2021;SDS011;1015;49.756;6.994;2023-04-03T10:50:29;4.50;;;2.70;;
2021;SDS011;1015;49.756;6.994;2023-04-03T10:52:57;3.43;;;2.20;;
2021;SDS011;1015;49.756;6.994;2023-04-03T10:55:30;3.07;;;2.23;;
2021;SDS011;1015;49.756;6.994;2023-04-03T10:57:59;3.73;;;2.10;;
2021;SDS011;1015;49.756;6.994;2023-04-03T11:00:28;4.80;;;2.50;;
2021;SDS011;1015;49.756;6.994;2023-04-03T11:02:59;3.40;;;3.00;;
2021;SDS011;1015;49.756;6.994;2023-04-03T11:05:30;4.37;;;2.60;;
2021;SDS011;1015;49.756;6.994;2023-04-03T11:07:59;2.50;;;1.83;;
2021;SDS011;1015;49.756;6.994;2023-04-03T11:10:35;3.43;;;2.40;;
2021;SDS011;1015;49.756;6.994;2023-04-03T11:13:06;3.73;;;2.07;;
2021;SDS011;1015;49.756;6.994;2023-04-03T11:15:35;2.73;;;1.70;;
2021;SDS011;1015;49.756;6.994;2023-04-03T11:18:06;3.83;;;1.90;;
2021;SDS011;1015;49.756;6.994;2023-04-03T11:20:35;4.20;;;2.27;;
2021;SDS011;1015;49.756;6.994;2023-04-03T11:23:05;2.77;;;1.60;;
2021;SDS011;1015;49.756;6.994;2023-04-03T11:25:33;2.47;;;1.80;;
2021;SDS011;1015;49.756;6.994;2023-04-03T11:28:02;2.90;;;1.97;;
2021;SDS011;1015;49.756;6.994;2023-04-03T11:30:31;3.30;;;1.40;;
2021;SDS011;1015;49.756;6.994;2023-04-03T11:33:23;4.83;;;1.97;;
2021;SDS011;1015;49.756;6.994;2023-04-03T11:35:52;5.43;;;2.20;;
2021;SDS011;1015;49.756;6.994;2023-04-03T11:38:21;3.93;;;2.23;;
2021;SDS011;1015;49.756;6.994;2023-04-03T11:40:51;2.70;;;1.90;;
2021;SDS011;1015;49.756;6.994;2023-04-03T11:43:21;3.40;;;2.10;;
2021;SDS011;1015;49.756;6.994;2023-04-03T11:45:51;1.93;;;1.47;;
2021;SDS011;1015;49.756;6.994;2023-04-03T11:53:49;6.00;;;2.47;;
2021;SDS011;1015;49.756;6.994;2023-04-03T11:56:29;2.60;;;1.67;;
2021;SDS011;1015;49.756;6.994;2023-04-03T11:59:16;2.80;;;2.00;;
2021;SDS011;1015;49.756;6.994;2023-04-03T12:01:45;3.90;;;2.17;;
2021;SDS011;1015;49.756;6.994;2023-04-03T12:04:12;2.50;;;1.33;;
2021;SDS011;1015;49.756;6.994;2023-04-03T12:09:28;4.47;;;1.90;;
2021;SDS011;1015;49.756;6.994;2023-04-03T12:11:56;2.33;;;1.83;;
2021;SDS011;1015;49.756;6.994;2023-04-03T12:14:24;1.87;;;1.77;;
2021;SDS011;1015;49.756;6.994;2023-04-03T12:16:52;2.80;;;1.70;;
2021;SDS011;1015;49.756;6.994;2023-04-03T12:19:32;4.50;;;1.90;;
2021;SDS011;1015;49.756;6.994;2023-04-03T12:22:10;2.60;;;1.83;;
2021;SDS011;1015;49.756;6.994;2023-04-03T12:24:39;2.00;;;1.60;;
2021;SDS011;1015;49.756;6.994;2023-04-03T12:27:26;3.07;;;1.70;;
2021;SDS011;1015;49.756;6.994;2023-04-03T12:30:00;2.73;;;1.80;;
2021;SDS011;1015;49.756;6.994;2023-04-03T12:32:41;3.10;;;2.30;;
2021;SDS011;1015;49.756;6.994;2023-04-03T12:35:14;2.73;;;2.03;;
2021;SDS011;1015;49.756;6.994;2023-04-03T12:40:28;1.40;;;1.30;;
2021;SDS011;1015;49.756;6.994;2023-04-03T12:43:02;4.70;;;2.20;;
2021;SDS011;1015;49.756;6.994;2023-04-03T12:45:37;2.73;;;1.57;;
2021;SDS011;1015;49.756;6.994;2023-04-03T12:48:08;1.90;;;1.60;;
2021;SDS011;1015;49.756;6.994;2023-04-03T12:50:37;3.40;;;2.30;;
2021;SDS011;1015;49.756;6.994;2023-04-03T12:53:11;4.00;;;1.70;;
2021;SDS011;1015;49.756;6.994;2023-04-03T12:55:41;3.30;;;2.00;;
2021;SDS011;1015;49.756;6.994;2023-04-03T12:58:16;1.40;;;1.30;;
2021;SDS011;1015;49.756;6.994;2023-04-03T13:00:43;6.40;;;4.90;;
2021;SDS011;1015;49.756;6.994;2023-04-03T13:03:21;3.40;;;2.10;;
2021;SDS011;1015;49.756;6.994;2023-04-03T13:05:49;2.77;;;1.90;;
2021;SDS011;1015;49.756;6.994;2023-04-03T13:08:16;12.90;;;7.20;;
2021;SDS011;1015;49.756;6.994;2023-04-03T13:10:51;9.70;;;6.13;;
2021;SDS011;1015;49.756;6.994;2023-04-03T13:13:19;4.23;;;1.73;;
2021;SDS011;1015;49.756;6.994;2023-04-03T13:15:48;4.80;;;2.33;;
2021;SDS011;1015;49.756;6.994;2023-04-03T13:18:23;3.17;;;2.33;;
2021;SDS011;1015;49.756;6.994;2023-04-03T13:20:51;2.00;;;1.90;;
2021;SDS011;1015;49.756;6.994;2023-04-03T13:23:20;4.77;;;2.40;;
2021;SDS011;1015;49.756;6.994;2023-04-03T13:25:48;3.30;;;2.20;;
2021;SDS011;1015;49.756;6.994;2023-04-03T13:28:18;3.60;;;3.30;;
2021;SDS011;1015;49.756;6.994;2023-04-03T13:31:00;4.23;;;1.90;;
2021;SDS011;1015;49.756;6.994;2023-04-03T13:33:30;3.27;;;2.90;;
2021;SDS011;1015;49.756;6.994;2023-04-03T13:35:59;3.27;;;2.30;;
2021;SDS011;1015;49.756;6.994;2023-04-03T13:38:27;4.10;;;2.57;;
2021;SDS011;1015;49.756;6.994;2023-04-03T13:40:57;4.30;;;2.80;;
2021;SDS011;1015;49.756;6.994;2023-04-03T13:43:27;6.57;;;2.90;;
2021;SDS011;1015;49.756;6.994;2023-04-03T13:45:56;3.27;;;2.63;;
2021;SDS011;1015;49.756;6.994;2023-04-03T13:48:24;2.90;;;2.60;;
2021;SDS011;1015;49.756;6.994;2023-04-03T13:50:56;3.07;;;2.27;;
2021;SDS011;1015;49.756;6.994;2023-04-03T13:53:24;4.47;;;2.73;;
2021;SDS011;1015;49.756;6.994;2023-04-03T13:55:54;2.47;;;2.27;;
2021;SDS011;1015;49.756;6.994;2023-04-03T13:58:22;3.20;;;1.83;;
2021;SDS011;1015;49.756;6.994;2023-04-03T14:00:52;4.80;;;2.67;;
2021;SDS011;1015;49.756;6.994;2023-04-03T14:03:21;4.00;;;3.23;;
2021;SDS011;1015;49.756;6.994;2023-04-03T14:05:49;3.50;;;2.53;;
2021;SDS011;1015;49.756;6.994;2023-04-03T14:08:16;2.80;;;2.27;;
2021;SDS011;1015;49.756;6.994;2023-04-03T14:10:44;4.70;;;2.37;;
2021;SDS011;1015;49.756;6.994;2023-04-03T14:13:12;2.07;;;1.90;;
2021;SDS011;1015;49.756;6.994;2023-04-03T14:15:40;3.30;;;2.60;;
2021;SDS011;1015;49.756;6.994;2023-04-03T14:18:11;2.50;;;2.30;;
2021;SDS011;1015;49.756;6.994;2023-04-03T14:20:39;4.47;;;3.03;;
2021;SDS011;1015;49.756;6.994;2023-04-03T14:23:06;4.53;;;3.30;;
2021;SDS011;1015;49.756;6.994;2023-04-03T14:25:34;3.63;;;2.70;;
2021;SDS011;1015;49.756;6.994;2023-04-03T14:28:01;3.83;;;2.40;;
2021;SDS011;1015;49.756;6.994;2023-04-03T14:30:29;3.73;;;2.83;;
2021;SDS011;1015;49.756;6.994;2023-04-03T14:32:56;3.80;;;2.80;;
2021;SDS011;1015;49.756;6.994;2023-04-03T14:35:25;4.00;;;2.90;;
2021;SDS011;1015;49.756;6.994;2023-04-03T14:37:53;3.83;;;2.77;;
2021;SDS011;1015;49.756;6.994;2023-04-03T14:40:22;6.53;;;3.03;;
2021;SDS011;1015;49.756;6.994;2023-04-03T14:42:49;3.00;;;2.70;;
2021;SDS011;1015;49.756;6.994;2023-04-03T14:45:20;5.17;;;4.23;;
2021;SDS011;1015;49.756;6.994;2023-04-03T14:47:48;3.67;;;3.23;;
2021;SDS011;1015;49.756;6.994;2023-04-03T14:50:17;6.40;;;4.80;;
2021;SDS011;1015;49.756;6.994;2023-04-03T14:52:47;4.60;;;3.77;;
2021;SDS011;1015;49.756;6.994;2023-04-03T14:55:15;5.20;;;4.37;;
2021;SDS011;1015;49.756;6.994;2023-04-03T14:57:43;4.17;;;3.77;;
2021;SDS011;1015;49.756;6.994;2023-04-03T15:00:12;4.07;;;2.70;;
2021;SDS011;1015;49.756;6.994;2023-04-03T15:02:40;4.03;;;2.77;;
2021;SDS011;1015;49.756;6.994;2023-04-03T15:05:08;2.77;;;2.57;;
2021;SDS011;1015;49.756;6.994;2023-04-03T15:07:36;4.23;;;2.90;;
2021;SDS011;1015;49.756;6.994;2023-04-03T15:10:13;2.87;;;2.67;;
2021;SDS011;1015;49.756;6.994;2023-04-03T15:12:41;2.50;;;2.30;;
2021;SDS011;1015;49.756;6.994;2023-04-03T15:15:09;4.57;;;4.17;;
2021;SDS011;1015;49.756;6.994;2023-04-03T15:17:36;4.47;;;3.87;;
2021;SDS011;1015;49.756;6.994;2023-04-03T15:20:05;4.10;;;3.03;;
2021;SDS011;1015;49.756;6.994;2023-04-03T15:22:38;3.93;;;3.43;;
2021;SDS011;1015;49.756;6.994;2023-04-03T15:25:05;4.00;;;3.27;;
2021;SDS011;1015;49.756;6.994;2023-04-03T15:27:34;5.60;;;4.80;;
2021;SDS011;1015;49.756;6.994;2023-04-03T15:30:02;5.37;;;3.63;;
2021;SDS011;1015;49.756;6.994;2023-04-03T15:32:29;4.00;;;2.90;;
2021;SDS011;1015;49.756;6.994;2023-04-03T15:34:57;3.90;;;3.50;;
2021;SDS011;1015;49.756;6.994;2023-04-03T15:37:24;3.00;;;2.47;;
2021;SDS011;1015;49.756;6.994;2023-04-03T15:39:51;4.27;;;3.87;;
2021;SDS011;1015;49.756;6.994;2023-04-03T15:42:18;4.20;;;3.80;;